Time;durP1;ratioP1;P1;durP2;ratioP2;P2;SDS_P1;SDS_P2;PMS_P1;PMS_P2;Temp;Humidity;BMP_temperature;BMP_pressure;BME280_temperature;BME280_humidity;BME280_pressure;Samples;Min_cycle;Max_cycle;Signal;HPM_P1;HPM_P2
2023/05/20 00:02:17;;;;;;;16.83;6.55;;;;;;;;;;5032531;28;20131;-74
2023/05/20 00:04:43;;;;;;;13.18;6.65;;;;;;;;;;5046782;28;20053;-74
2023/05/20 00:07:09;;;;;;;10.70;6.93;;;;;;;;;;5037317;28;20041;-74
2023/05/20 00:09:37;;;;;;;11.88;6.85;;;;;;;;;;5032763;28;20047;-74
2023/05/20 00:12:03;;;;;;;11.82;6.65;;;;;;;;;;5032418;28;20164;-74
2023/05/20 00:14:29;;;;;;;15.00;7.13;;;;;;;;;;5043913;28;20483;-74
2023/05/20 00:16:55;;;;;;;14.55;7.20;;;;;;;;;;5030555;28;20538;-74
2023/05/20 00:19:21;;;;;;;15.20;7.22;;;;;;;;;;5038085;28;20045;-74
2023/05/20 00:21:47;;;;;;;14.82;6.82;;;;;;;;;;5045769;28;20037;-74
2023/05/20 00:24:13;;;;;;;17.23;7.13;;;;;;;;;;5024593;28;20045;-74
2023/05/20 00:26:39;;;;;;;11.45;7.53;;;;;;;;;;5051477;28;20112;-74
2023/05/20 00:29:05;;;;;;;14.40;6.93;;;;;;;;;;5033772;28;20451;-74
2023/05/20 00:31:32;;;;;;;12.13;6.93;;;;;;;;;;5044040;28;20045;-74
2023/05/20 00:33:58;;;;;;;14.70;7.15;;;;;;;;;;5044450;28;20041;-74
2023/05/20 00:36:24;;;;;;;15.77;7.10;;;;;;;;;;5033693;28;20467;-74
2023/05/20 00:38:50;;;;;;;13.38;6.68;;;;;;;;;;5043601;28;20090;-74
2023/05/20 00:41:16;;;;;;;12.13;7.57;;;;;;;;;;5030924;28;20480;-74
2023/05/20 00:43:42;;;;;;;14.00;7.20;;;;;;;;;;5043049;28;20125;-74
2023/05/20 00:46:08;;;;;;;13.82;7.45;;;;;;;;;;5040559;28;20037;-74
2023/05/20 00:48:40;;;;;;;14.23;7.47;;;;;;;;;;5033305;28;20045;-74
2023/05/20 00:51:06;;;;;;;15.73;7.43;;;;;;;;;;5036764;28;20041;-74
2023/05/20 00:53:33;;;;;;;13.45;7.47;;;;;;;;;;5043030;28;20387;-74
2023/05/20 00:55:59;;;;;;;16.67;7.13;;;;;;;;;;5046128;28;20048;-74
2023/05/20 00:58:25;;;;;;;17.58;7.68;;;;;;;;;;5044773;28;20486;-74
2023/05/20 01:00:51;;;;;;;18.98;8.45;;;;;;;;;;5037890;28;20073;-74
2023/05/20 01:03:17;;;;;;;14.70;7.80;;;;;;;;;;5044484;28;20041;-74
2023/05/20 01:05:43;;;;;;;14.52;8.15;;;;;;;;;;5035388;28;20112;-74
2023/05/20 01:08:09;;;;;;;20.63;8.60;;;;;;;;;;5033804;28;20448;-74
2023/05/20 01:10:38;;;;;;;14.63;7.78;;;;;;;;;;5050247;28;20053;-74
2023/05/20 01:13:08;;;;;;;16.63;8.07;;;;;;;;;;5049901;28;20122;-74
2023/05/20 01:15:35;;;;;;;14.07;7.90;;;;;;;;;;5052502;28;20056;-74
2023/05/20 01:18:02;;;;;;;16.30;8.32;;;;;;;;;;5052259;28;20116;-74
2023/05/20 01:20:31;;;;;;;14.43;7.70;;;;;;;;;;5021807;28;20072;-74
2023/05/20 01:22:57;;;;;;;16.00;8.43;;;;;;;;;;5045419;28;20092;-74
2023/05/20 01:25:23;;;;;;;15.73;8.18;;;;;;;;;;5051978;28;20045;-74
2023/05/20 01:27:51;;;;;;;17.50;7.50;;;;;;;;;;5053064;28;20120;-74
2023/05/20 01:30:18;;;;;;;15.65;7.85;;;;;;;;;;5033312;28;20065;-74
2023/05/20 01:32:48;;;;;;;14.77;7.82;;;;;;;;;;5046258;28;20145;-74
2023/05/20 01:35:14;;;;;;;13.23;7.40;;;;;;;;;;5044876;28;20100;-74
2023/05/20 01:37:41;;;;;;;19.02;8.82;;;;;;;;;;5033903;28;20045;-74
2023/05/20 01:40:08;;;;;;;14.38;8.07;;;;;;;;;;5030680;28;20042;-74
2023/05/20 01:42:35;;;;;;;13.93;8.48;;;;;;;;;;5034565;28;20045;-74
2023/05/20 01:45:01;;;;;;;18.23;8.15;;;;;;;;;;5043425;28;20041;-74
2023/05/20 01:47:27;;;;;;;14.00;8.10;;;;;;;;;;5052485;28;20041;-74
2023/05/20 01:49:53;;;;;;;13.95;8.10;;;;;;;;;;5043895;28;20041;-74
2023/05/20 01:52:20;;;;;;;17.70;8.93;;;;;;;;;;5034048;28;20049;-74
2023/05/20 01:54:49;;;;;;;15.52;8.45;;;;;;;;;;5056080;28;20037;-74
2023/05/20 01:57:17;;;;;;;15.30;8.07;;;;;;;;;;5039071;28;20045;-74
2023/05/20 01:59:43;;;;;;;13.70;7.38;;;;;;;;;;5055454;28;20049;-74
2023/05/20 02:02:09;;;;;;;11.80;7.75;;;;;;;;;;5056142;28;20044;-74
2023/05/20 02:04:35;;;;;;;16.92;7.70;;;;;;;;;;5055140;28;20147;-74
2023/05/20 02:07:01;;;;;;;12.25;7.00;;;;;;;;;;5027358;28;20095;-74
2023/05/20 02:09:28;;;;;;;19.65;8.45;;;;;;;;;;5055439;28;20518;-74
2023/05/20 02:11:54;;;;;;;15.30;8.02;;;;;;;;;;5050791;28;20060;-74
2023/05/20 02:14:20;;;;;;;14.25;7.05;;;;;;;;;;5056242;28;20049;-74
2023/05/20 02:16:46;;;;;;;11.60;7.47;;;;;;;;;;5055827;28;20124;-74
2023/05/20 02:19:12;;;;;;;14.07;7.60;;;;;;;;;;5055331;28;20479;-74
2023/05/20 02:21:39;;;;;;;12.77;7.05;;;;;;;;;;5019371;28;20506;-74
2023/05/20 02:24:06;;;;;;;13.30;7.15;;;;;;;;;;5034798;28;20132;-74
2023/05/20 02:26:33;;;;;;;12.98;6.55;;;;;;;;;;5051374;28;20049;-74
2023/05/20 02:28:59;;;;;;;13.70;7.47;;;;;;;;;;5033175;28;20037;-74
2023/05/20 02:31:25;;;;;;;12.80;6.97;;;;;;;;;;5009176;28;20045;-74
2023/05/20 02:33:51;;;;;;;11.27;6.65;;;;;;;;;;5028489;28;20053;-74
2023/05/20 02:36:17;;;;;;;14.65;7.47;;;;;;;;;;5049134;28;20045;-74
2023/05/20 02:38:44;;;;;;;12.82;6.75;;;;;;;;;;5023937;28;20128;-74
2023/05/20 02:41:10;;;;;;;14.60;7.20;;;;;;;;;;5051084;28;20045;-74
2023/05/20 02:43:36;;;;;;;11.23;7.20;;;;;;;;;;5047084;28;20110;-74
2023/05/20 02:46:02;;;;;;;12.63;7.05;;;;;;;;;;5043794;28;20496;-74
2023/05/20 02:48:28;;;;;;;12.00;6.80;;;;;;;;;;5055087;28;20037;-74
2023/05/20 02:50:55;;;;;;;12.43;7.55;;;;;;;;;;5055635;28;20082;-74
2023/05/20 02:53:21;;;;;;;10.65;6.80;;;;;;;;;;5050597;28;20140;-74
2023/05/20 02:55:47;;;;;;;13.80;7.68;;;;;;;;;;5032601;28;20387;-74
2023/05/20 02:58:13;;;;;;;11.15;7.32;;;;;;;;;;5048143;28;20125;-74
2023/05/20 03:00:40;;;;;;;16.30;8.85;;;;;;;;;;5048488;28;20045;-74
2023/05/20 03:03:09;;;;;;;13.88;7.93;;;;;;;;;;5040628;28;20455;-74
2023/05/20 03:05:39;;;;;;;15.43;8.05;;;;;;;;;;5036918;28;20084;-74
2023/05/20 03:08:08;;;;;;;13.15;8.48;;;;;;;;;;5055048;28;20451;-74
2023/05/20 03:10:34;;;;;;;13.35;7.53;;;;;;;;;;5055033;28;20502;-73
2023/05/20 03:13:00;;;;;;;13.57;7.55;;;;;;;;;;5040710;28;20403;-74
2023/05/20 03:15:26;;;;;;;17.63;8.10;;;;;;;;;;5059403;28;20068;-74
2023/05/20 03:17:52;;;;;;;16.17;8.85;;;;;;;;;;5054308;28;20365;-74
2023/05/20 03:20:19;;;;;;;14.57;7.90;;;;;;;;;;5054842;28;20037;-73
2023/05/20 03:22:45;;;;;;;12.77;7.63;;;;;;;;;;5053403;28;20045;-74
2023/05/20 03:25:11;;;;;;;14.52;7.22;;;;;;;;;;5054562;28;20048;-74
2023/05/20 03:27:38;;;;;;;12.10;7.10;;;;;;;;;;5036375;28;20049;-74
2023/05/20 03:30:04;;;;;;;16.55;7.63;;;;;;;;;;5054029;28;20424;-74
2023/05/20 03:32:30;;;;;;;12.52;7.25;;;;;;;;;;5048952;28;20503;-74
2023/05/20 03:34:56;;;;;;;11.75;6.90;;;;;;;;;;5037968;28;20468;-74
2023/05/20 03:37:23;;;;;;;14.05;7.03;;;;;;;;;;5045685;28;20045;-74
2023/05/20 03:39:49;;;;;;;10.80;6.50;;;;;;;;;;5054429;28;20060;-74
2023/05/20 03:42:15;;;;;;;10.38;6.20;;;;;;;;;;5054322;28;20052;-74
2023/05/20 03:44:41;;;;;;;11.65;6.68;;;;;;;;;;5054445;28;20037;-74
2023/05/20 03:47:07;;;;;;;12.95;6.53;;;;;;;;;;5052887;28;20044;-74
2023/05/20 03:49:33;;;;;;;10.40;5.97;;;;;;;;;;5034643;28;20036;-74
2023/05/20 03:51:59;;;;;;;12.57;6.10;;;;;;;;;;5054498;28;20075;-74
2023/05/20 03:54:26;;;;;;;10.48;6.10;;;;;;;;;;5049965;28;20081;-74
2023/05/20 03:56:53;;;;;;;10.25;5.95;;;;;;;;;;5045650;28;20120;-74
2023/05/20 03:59:21;;;;;;;11.93;5.80;;;;;;;;;;5053351;28;20122;-74
2023/05/20 04:01:47;;;;;;;11.18;5.70;;;;;;;;;;5032842;28;20508;-74
2023/05/20 04:04:13;;;;;;;9.77;5.43;;;;;;;;;;5051943;28;20040;-74
2023/05/20 04:06:39;;;;;;;9.68;5.43;;;;;;;;;;5053975;28;20120;-74
2023/05/20 04:09:05;;;;;;;10.38;6.13;;;;;;;;;;5053562;28;20499;-74
2023/05/20 04:11:31;;;;;;;9.38;5.43;;;;;;;;;;5042030;28;20136;-74
2023/05/20 04:13:59;;;;;;;10.57;5.60;;;;;;;;;;5051382;28;20040;-74
2023/05/20 04:16:25;;;;;;;8.13;5.10;;;;;;;;;;5053277;28;20060;-74
2023/05/20 04:18:52;;;;;;;8.82;5.43;;;;;;;;;;5053685;28;20056;-74
2023/05/20 04:21:18;;;;;;;7.75;4.78;;;;;;;;;;5053463;28;20049;-74
2023/05/20 04:23:44;;;;;;;7.85;5.20;;;;;;;;;;5046457;28;20071;-74
2023/05/20 04:26:10;;;;;;;7.88;4.88;;;;;;;;;;5052782;28;20051;-74
2023/05/20 04:28:36;;;;;;;8.73;5.13;;;;;;;;;;5035032;28;20495;-74
2023/05/20 04:31:05;;;;;;;7.60;4.80;;;;;;;;;;5045545;28;20090;-74
2023/05/20 04:33:31;;;;;;;9.52;4.97;;;;;;;;;;5045910;28;20503;-74
2023/05/20 04:35:58;;;;;;;7.80;4.70;;;;;;;;;;5045229;28;20510;-74
2023/05/20 04:38:31;;;;;;;6.38;4.30;;;;;;;;;;5053084;28;20037;-74
2023/05/20 04:40:57;;;;;;;6.55;4.50;;;;;;;;;;5052678;28;20053;-74
2023/05/20 04:43:24;;;;;;;8.77;5.18;;;;;;;;;;5053444;28;20094;-74
2023/05/20 04:45:52;;;;;;;9.73;5.10;;;;;;;;;;5053230;28;20068;-74
2023/05/20 04:48:19;;;;;;;10.63;4.97;;;;;;;;;;5052709;28;20045;-74
2023/05/20 04:50:45;;;;;;;9.43;4.80;;;;;;;;;;5051559;28;20052;-74
2023/05/20 04:53:11;;;;;;;6.53;4.25;;;;;;;;;;5053118;28;20041;-74
2023/05/20 04:55:38;;;;;;;7.20;4.55;;;;;;;;;;5016472;28;20456;-74
2023/05/20 04:58:06;;;;;;;9.10;4.68;;;;;;;;;;5053145;28;20503;-74
2023/05/20 05:00:33;;;;;;;5.15;4.10;;;;;;;;;;5031822;28;20056;-74
2023/05/20 05:03:00;;;;;;;8.20;4.63;;;;;;;;;;5035175;28;20086;-74
2023/05/20 05:05:26;;;;;;;7.32;4.22;;;;;;;;;;5045824;28;20087;-74
2023/05/20 05:07:52;;;;;;;6.82;3.67;;;;;;;;;;5052756;28;20045;-74
2023/05/20 05:10:18;;;;;;;8.27;3.90;;;;;;;;;;5051764;28;20118;-74
2023/05/20 05:12:44;;;;;;;4.80;3.20;;;;;;;;;;5041598;28;20079;-74
2023/05/20 05:15:11;;;;;;;4.85;3.30;;;;;;;;;;5052053;28;20045;-74
2023/05/20 05:17:37;;;;;;;4.15;3.08;;;;;;;;;;5045008;28;20070;-74
2023/05/20 05:20:03;;;;;;;6.18;3.28;;;;;;;;;;5027998;28;20322;-74
2023/05/20 05:22:29;;;;;;;5.82;3.10;;;;;;;;;;5033952;28;20052;-74
2023/05/20 05:24:55;;;;;;;5.78;3.10;;;;;;;;;;5034584;28;20487;-73
2023/05/20 05:27:21;;;;;;;4.57;2.90;;;;;;;;;;5027465;28;20053;-74
2023/05/20 05:29:47;;;;;;;5.88;3.42;;;;;;;;;;5055234;28;20045;-74
2023/05/20 05:32:13;;;;;;;5.18;3.08;;;;;;;;;;5039824;28;20167;-74
2023/05/20 05:34:39;;;;;;;5.10;3.08;;;;;;;;;;5041993;28;20041;-74
2023/05/20 05:37:05;;;;;;;3.38;2.65;;;;;;;;;;5044269;28;20041;-74
2023/05/20 05:39:33;;;;;;;4.68;2.92;;;;;;;;;;5054632;28;20442;-74
2023/05/20 05:41:59;;;;;;;3.65;2.67;;;;;;;;;;5058171;28;20048;-76
2023/05/20 05:44:25;;;;;;;3.38;2.40;;;;;;;;;;5048975;28;20486;-74
2023/05/20 05:46:51;;;;;;;3.60;2.42;;;;;;;;;;5043745;28;20048;-74
2023/05/20 05:49:17;;;;;;;4.20;2.60;;;;;;;;;;5039726;28;20053;-74
2023/05/20 05:51:43;;;;;;;4.28;2.63;;;;;;;;;;5057595;28;20222;-74
2023/05/20 05:54:09;;;;;;;3.78;2.78;;;;;;;;;;5039798;28;20138;-74
2023/05/20 05:56:35;;;;;;;4.53;3.13;;;;;;;;;;5049707;28;20053;-74
2023/05/20 05:59:01;;;;;;;4.18;2.70;;;;;;;;;;5038136;28;20045;-74
2023/05/20 06:01:27;;;;;;;5.07;2.70;;;;;;;;;;5051167;28;20043;-74
2023/05/20 06:03:54;;;;;;;5.05;2.58;;;;;;;;;;5056683;28;20115;-74
2023/05/20 06:06:20;;;;;;;5.22;2.50;;;;;;;;;;5033682;28;20497;-74
2023/05/20 06:08:46;;;;;;;7.15;2.63;;;;;;;;;;5044051;28;20112;-74
2023/05/20 06:11:12;;;;;;;3.65;2.50;;;;;;;;;;5053643;28;20049;-74
2023/05/20 06:13:38;;;;;;;4.60;2.70;;;;;;;;;;5056941;28;20036;-74
2023/05/20 06:16:04;;;;;;;5.22;2.42;;;;;;;;;;5041086;28;20045;-74
2023/05/20 06:18:31;;;;;;;6.20;2.50;;;;;;;;;;5041354;28;20122;-74
2023/05/20 06:20:57;;;;;;;3.55;2.50;;;;;;;;;;5056438;28;20073;-74
2023/05/20 06:23:23;;;;;;;4.50;2.60;;;;;;;;;;5054668;28;20097;-74
2023/05/20 06:25:50;;;;;;;7.05;2.67;;;;;;;;;;5039891;28;20128;-74
2023/05/20 06:28:16;;;;;;;8.18;2.63;;;;;;;;;;5048740;28;20044;-74
2023/05/20 06:30:42;;;;;;;5.35;2.75;;;;;;;;;;5063879;28;20041;-74
2023/05/20 06:33:08;;;;;;;5.38;2.60;;;;;;;;;;5056319;28;20037;-74
2023/05/20 06:35:34;;;;;;;6.78;2.65;;;;;;;;;;5040168;28;20045;-74
2023/05/20 06:38:00;;;;;;;5.25;2.47;;;;;;;;;;5055463;28;20063;-74
2023/05/20 06:40:27;;;;;;;3.70;2.30;;;;;;;;;;5050859;28;20186;-74
2023/05/20 06:42:53;;;;;;;3.70;2.20;;;;;;;;;;5037743;28;20138;-74
2023/05/20 06:45:20;;;;;;;5.68;2.40;;;;;;;;;;5045692;28;20053;-74
2023/05/20 06:47:48;;;;;;;5.57;2.50;;;;;;;;;;5044503;28;20438;-75
2023/05/20 06:50:15;;;;;;;4.45;2.42;;;;;;;;;;5043737;28;20542;-75
2023/05/20 06:52:41;;;;;;;4.65;2.70;;;;;;;;;;5021557;28;20040;-75
2023/05/20 06:55:07;;;;;;;5.95;2.47;;;;;;;;;;5034880;28;20183;-75
2023/05/20 06:57:33;;;;;;;5.18;2.50;;;;;;;;;;5035563;28;20117;-75
2023/05/20 06:59:59;;;;;;;3.88;2.40;;;;;;;;;;5029941;28;21403;-75
2023/05/20 07:02:25;;;;;;;2.88;2.20;;;;;;;;;;5054980;28;20044;-75
2023/05/20 07:04:51;;;;;;;6.35;2.83;;;;;;;;;;5051529;28;20124;-75
2023/05/20 07:07:17;;;;;;;10.25;2.80;;;;;;;;;;5055176;28;20120;-75
2023/05/20 07:09:43;;;;;;;5.18;2.47;;;;;;;;;;5044832;28;20123;-75
2023/05/20 07:12:09;;;;;;;4.57;2.55;;;;;;;;;;5055582;28;20112;-74
2023/05/20 07:14:35;;;;;;;4.50;2.22;;;;;;;;;;5030300;28;20059;-75
2023/05/20 07:17:01;;;;;;;7.13;2.65;;;;;;;;;;5050135;28;20057;-75
2023/05/20 07:19:27;;;;;;;5.85;2.08;;;;;;;;;;5041471;28;20041;-75
2023/05/20 07:21:54;;;;;;;3.30;2.15;;;;;;;;;;5050782;28;20129;-75
2023/05/20 07:24:20;;;;;;;5.72;2.50;;;;;;;;;;5040870;28;20056;-75
2023/05/20 07:26:46;;;;;;;5.32;2.17;;;;;;;;;;5054638;28;20037;-75
2023/05/20 07:29:12;;;;;;;4.32;2.42;;;;;;;;;;5054699;28;20084;-75
2023/05/20 07:31:38;;;;;;;5.53;2.60;;;;;;;;;;5054350;28;20053;-75
2023/05/20 07:34:04;;;;;;;3.88;1.98;;;;;;;;;;5048709;28;20493;-74
2023/05/20 07:36:30;;;;;;;3.95;2.38;;;;;;;;;;5046740;28;20041;-75
2023/05/20 07:38:56;;;;;;;4.57;2.28;;;;;;;;;;5054537;28;20467;-75
2023/05/20 07:41:22;;;;;;;4.03;2.13;;;;;;;;;;5054009;28;20040;-75
2023/05/20 07:43:49;;;;;;;5.70;2.35;;;;;;;;;;5035859;28;20120;-75
2023/05/20 07:46:15;;;;;;;6.28;2.50;;;;;;;;;;5053819;28;20037;-75
2023/05/20 07:48:41;;;;;;;4.88;2.30;;;;;;;;;;5051826;28;20124;-75
2023/05/20 07:51:07;;;;;;;5.78;2.63;;;;;;;;;;5050589;28;20064;-75
2023/05/20 07:53:33;;;;;;;9.10;2.20;;;;;;;;;;5052848;28;20201;-75
2023/05/20 07:55:59;;;;;;;5.20;2.33;;;;;;;;;;5052845;28;20048;-75
2023/05/20 07:58:27;;;;;;;6.53;2.42;;;;;;;;;;5053951;28;20479;-75
2023/05/20 08:00:53;;;;;;;3.28;2.00;;;;;;;;;;5053951;28;20141;-75
2023/05/20 08:03:21;;;;;;;4.70;2.00;;;;;;;;;;5035460;28;20052;-75
2023/05/20 08:05:47;;;;;;;4.40;2.25;;;;;;;;;;5040128;28;20044;-75
2023/05/20 08:08:13;;;;;;;3.92;2.22;;;;;;;;;;5053304;28;20045;-75
2023/05/20 08:10:39;;;;;;;5.22;2.15;;;;;;;;;;5051249;28;20048;-75
2023/05/20 08:13:05;;;;;;;5.50;2.00;;;;;;;;;;5037731;28;20089;-75
2023/05/20 08:15:31;;;;;;;5.57;2.10;;;;;;;;;;5039123;28;20506;-75
2023/05/20 08:17:57;;;;;;;3.65;2.00;;;;;;;;;;5032451;28;20077;-75
2023/05/20 08:20:25;;;;;;;6.50;2.30;;;;;;;;;;5035641;28;20079;-75
2023/05/20 08:22:51;;;;;;;5.97;2.20;;;;;;;;;;5051347;28;20045;-76
2023/05/20 08:25:17;;;;;;;7.13;2.58;;;;;;;;;;5040008;28;20053;-75
2023/05/20 08:27:43;;;;;;;5.43;2.30;;;;;;;;;;5043956;28;20037;-75
2023/05/20 08:30:10;;;;;;;5.88;2.22;;;;;;;;;;5052204;28;20040;-75
2023/05/20 08:32:36;;;;;;;6.07;2.72;;;;;;;;;;5053889;28;20055;-75
2023/05/20 08:35:03;;;;;;;5.95;2.42;;;;;;;;;;5048165;28;20048;-75
2023/05/20 08:37:29;;;;;;;6.55;2.40;;;;;;;;;;5049218;28;20072;-75
2023/05/20 08:39:55;;;;;;;5.80;2.08;;;;;;;;;;5034516;28;20056;-75
2023/05/20 08:42:25;;;;;;;8.52;2.40;;;;;;;;;;5051182;28;20041;-75
2023/05/20 08:44:52;;;;;;;8.55;2.53;;;;;;;;;;5052890;28;20049;-75
2023/05/20 08:47:20;;;;;;;6.38;2.53;;;;;;;;;;5058930;28;20045;-75
2023/05/20 08:49:48;;;;;;;4.80;2.30;;;;;;;;;;5047234;28;20092;-75
2023/05/20 08:52:14;;;;;;;8.68;2.83;;;;;;;;;;5045993;28;20056;-75
2023/05/20 08:54:43;;;;;;;7.30;2.90;;;;;;;;;;5040123;28;20122;-75
2023/05/20 08:57:12;;;;;;;6.15;2.50;;;;;;;;;;5051474;28;20041;-74
2023/05/20 08:59:39;;;;;;;8.98;2.58;;;;;;;;;;5057719;28;20101;-75
2023/05/20 09:02:06;;;;;;;5.55;2.70;;;;;;;;;;5037561;28;20045;-75
2023/05/20 09:04:32;;;;;;;7.28;2.90;;;;;;;;;;5016944;28;20044;-75
2023/05/20 09:06:58;;;;;;;7.18;2.70;;;;;;;;;;5052288;28;20127;-75
2023/05/20 09:09:24;;;;;;;6.53;2.40;;;;;;;;;;5052868;28;20079;-75
2023/05/20 09:11:50;;;;;;;7.30;2.90;;;;;;;;;;5052732;28;20152;-75
2023/05/20 09:14:16;;;;;;;8.32;2.90;;;;;;;;;;5052522;28;20053;-75
2023/05/20 09:16:42;;;;;;;8.20;2.53;;;;;;;;;;5052017;28;20045;-76
2023/05/20 09:19:08;;;;;;;5.60;2.58;;;;;;;;;;5040295;28;20107;-75
2023/05/20 09:21:34;;;;;;;8.07;3.28;;;;;;;;;;5047365;28;20041;-75
2023/05/20 09:24:04;;;;;;;6.20;2.50;;;;;;;;;;5020825;28;20045;-75
2023/05/20 09:26:30;;;;;;;6.00;2.85;;;;;;;;;;5052410;28;20075;-75
2023/05/20 09:28:56;;;;;;;6.32;2.42;;;;;;;;;;5052830;28;20053;-75
2023/05/20 09:31:26;;;;;;;6.82;2.60;;;;;;;;;;5052787;28;20048;-75
2023/05/20 09:33:52;;;;;;;6.38;3.00;;;;;;;;;;5053200;28;20052;-75
2023/05/20 09:36:20;;;;;;;8.50;2.72;;;;;;;;;;5052072;28;20044;-75
2023/05/20 09:38:46;;;;;;;7.20;2.95;;;;;;;;;;5052902;28;20072;-75
2023/05/20 09:41:14;;;;;;;6.30;2.72;;;;;;;;;;5051818;28;20098;-75
2023/05/20 09:43:41;;;;;;;9.30;2.90;;;;;;;;;;5054247;28;20064;-75
2023/05/20 09:46:07;;;;;;;9.30;2.85;;;;;;;;;;5056256;28;20093;-75
2023/05/20 09:48:36;;;;;;;5.53;2.65;;;;;;;;;;5056177;28;20499;-75
2023/05/20 09:51:03;;;;;;;8.23;2.90;;;;;;;;;;5041252;28;20052;-75
2023/05/20 09:53:30;;;;;;;8.95;3.10;;;;;;;;;;5042657;28;20491;-75
2023/05/20 09:55:56;;;;;;;8.45;3.35;;;;;;;;;;5047551;28;20053;-75
2023/05/20 09:58:23;;;;;;;5.90;3.05;;;;;;;;;;5051196;28;20099;-75
2023/05/20 10:00:49;;;;;;;9.15;2.97;;;;;;;;;;5052323;28;20037;-76
2023/05/20 10:03:15;;;;;;;8.63;2.88;;;;;;;;;;5021677;28;20225;-75
2023/05/20 10:05:59;;;;;;;5.75;2.80;;;;;;;;;;5036197;28;20415;-75
2023/05/20 10:08:37;;;;;;;5.63;2.70;;;;;;;;;;5038037;28;20126;-75
2023/05/20 10:11:11;;;;;;;6.68;2.65;;;;;;;;;;5052171;28;20064;-75
2023/05/20 10:13:52;;;;;;;6.05;2.88;;;;;;;;;;5037089;28;20480;-75
2023/05/20 10:16:42;;;;;;;5.80;2.80;;;;;;;;;;5035209;28;20045;-75
2023/05/20 10:19:21;;;;;;;7.15;2.70;;;;;;;;;;5034566;28;20082;-76
2023/05/20 10:21:56;;;;;;;7.70;2.42;;;;;;;;;;5048849;28;20367;-76
2023/05/20 10:24:28;;;;;;;8.27;2.90;;;;;;;;;;5033163;28;20045;-77
2023/05/20 10:26:55;;;;;;;5.63;2.50;;;;;;;;;;5056682;28;20041;-76
2023/05/20 10:29:21;;;;;;;4.93;2.55;;;;;;;;;;5038163;28;20049;-75
2023/05/20 10:31:52;;;;;;;7.18;2.80;;;;;;;;;;5053041;28;20507;-75
2023/05/20 10:34:19;;;;;;;9.25;3.10;;;;;;;;;;5028043;28;20430;-76
2023/05/20 10:36:54;;;;;;;5.68;2.92;;;;;;;;;;5026920;28;20125;-76
2023/05/20 10:39:32;;;;;;;8.38;3.22;;;;;;;;;;5049471;28;20091;-76
2023/05/20 10:42:06;;;;;;;6.95;3.53;;;;;;;;;;5034918;28;20146;-76
2023/05/20 10:44:41;;;;;;;7.85;3.10;;;;;;;;;;5005676;28;20128;-76
2023/05/20 10:47:07;;;;;;;5.88;3.28;;;;;;;;;;5050034;28;20041;-76
2023/05/20 10:49:34;;;;;;;8.55;3.25;;;;;;;;;;5041819;28;20562;-76
2023/05/20 10:52:01;;;;;;;6.22;2.88;;;;;;;;;;5030967;28;20060;-76
2023/05/20 10:54:28;;;;;;;8.00;3.55;;;;;;;;;;5053351;28;20519;-75
2023/05/20 10:56:54;;;;;;;7.85;3.08;;;;;;;;;;5052919;28;20048;-75
2023/05/20 10:59:23;;;;;;;7.75;3.42;;;;;;;;;;5022377;28;20522;-75
2023/05/20 11:01:50;;;;;;;7.05;2.85;;;;;;;;;;5053984;28;20041;-75
2023/05/20 11:04:16;;;;;;;5.22;3.40;;;;;;;;;;5036115;28;20041;-76
2023/05/20 11:06:50;;;;;;;6.03;3.30;;;;;;;;;;5050711;28;20472;-75
2023/05/20 11:09:16;;;;;;;7.43;2.85;;;;;;;;;;5049094;28;20406;-75
2023/05/20 11:11:42;;;;;;;5.95;3.10;;;;;;;;;;5028324;28;20488;-75
2023/05/20 11:14:13;;;;;;;6.35;3.15;;;;;;;;;;5042017;28;20052;-75
2023/05/20 11:16:39;;;;;;;7.07;3.30;;;;;;;;;;5046098;28;20546;-75
2023/05/20 11:19:09;;;;;;;8.45;3.42;;;;;;;;;;5029695;28;20049;-75
2023/05/20 11:21:42;;;;;;;10.05;3.85;;;;;;;;;;5049540;28;20087;-75
2023/05/20 11:24:08;;;;;;;7.25;3.03;;;;;;;;;;5045552;28;20049;-75
2023/05/20 11:26:34;;;;;;;7.72;3.10;;;;;;;;;;5037420;28;20115;-75
2023/05/20 11:29:00;;;;;;;9.95;4.10;;;;;;;;;;5044688;28;20041;-75
2023/05/20 11:31:26;;;;;;;9.38;3.63;;;;;;;;;;5050326;28;20052;-75
2023/05/20 11:33:53;;;;;;;7.25;2.97;;;;;;;;;;5048335;28;20087;-75
2023/05/20 11:36:19;;;;;;;7.68;3.03;;;;;;;;;;5053879;28;20467;-75
2023/05/20 11:38:46;;;;;;;7.30;4.07;;;;;;;;;;5053733;28;20072;-75
2023/05/20 11:41:12;;;;;;;10.88;3.88;;;;;;;;;;5036407;28;20052;-77
2023/05/20 11:43:41;;;;;;;8.48;3.65;;;;;;;;;;5042292;28;20488;-75
2023/05/20 11:46:07;;;;;;;6.78;3.42;;;;;;;;;;5035837;28;20111;-75
2023/05/20 11:48:33;;;;;;;8.23;3.72;;;;;;;;;;5046153;28;20036;-75
2023/05/20 11:50:59;;;;;;;8.13;3.47;;;;;;;;;;5050065;28;20076;-75
2023/05/20 11:53:25;;;;;;;6.80;3.55;;;;;;;;;;5047043;28;20048;-75
2023/05/20 11:55:54;;;;;;;8.45;3.35;;;;;;;;;;5040234;28;20054;-75
2023/05/20 11:58:25;;;;;;;7.50;3.40;;;;;;;;;;5043399;28;20148;-75
2023/05/20 12:00:51;;;;;;;6.97;3.35;;;;;;;;;;5010499;28;20476;-75
2023/05/20 12:03:17;;;;;;;7.20;3.55;;;;;;;;;;5044719;28;20049;-75
2023/05/20 12:05:43;;;;;;;7.53;3.40;;;;;;;;;;5042479;28;20041;-75
2023/05/20 12:08:09;;;;;;;7.00;3.53;;;;;;;;;;5052943;28;20091;-75
2023/05/20 12:10:38;;;;;;;7.03;3.72;;;;;;;;;;5038237;28;20049;-75
2023/05/20 12:13:09;;;;;;;8.35;3.90;;;;;;;;;;5045377;28;20041;-75
2023/05/20 12:15:35;;;;;;;9.38;3.38;;;;;;;;;;5041797;28;20084;-75
2023/05/20 12:18:01;;;;;;;6.28;3.38;;;;;;;;;;5044373;28;20041;-76
2023/05/20 12:20:29;;;;;;;10.45;3.75;;;;;;;;;;5042692;28;20076;-75
2023/05/20 12:22:55;;;;;;;10.30;4.10;;;;;;;;;;5034880;28;20069;-75
2023/05/20 12:25:21;;;;;;;8.75;3.80;;;;;;;;;;5049856;28;20080;-75
2023/05/20 12:27:47;;;;;;;9.43;3.97;;;;;;;;;;5043233;28;20060;-75
2023/05/20 12:30:15;;;;;;;7.00;3.80;;;;;;;;;;5052528;28;20471;-75
2023/05/20 12:32:42;;;;;;;9.13;4.20;;;;;;;;;;5049803;28;20113;-76
2023/05/20 12:35:08;;;;;;;5.90;3.70;;;;;;;;;;5050606;28;20753;-75
2023/05/20 12:37:35;;;;;;;6.30;3.83;;;;;;;;;;5043413;28;20375;-75
2023/05/20 12:40:01;;;;;;;5.28;3.72;;;;;;;;;;5034985;28;20049;-75
2023/05/20 12:42:27;;;;;;;6.70;4.25;;;;;;;;;;5040706;28;20049;-75
2023/05/20 12:44:53;;;;;;;8.23;3.95;;;;;;;;;;5037881;28;20052;-76
2023/05/20 12:47:20;;;;;;;7.50;3.83;;;;;;;;;;5023105;28;20384;-75
2023/05/20 12:49:46;;;;;;;7.03;3.63;;;;;;;;;;5029209;28;20125;-75
2023/05/20 12:52:12;;;;;;;9.35;4.15;;;;;;;;;;5028608;28;20179;-75
2023/05/20 12:54:38;;;;;;;9.10;4.05;;;;;;;;;;5052750;28;20540;-76
2023/05/20 12:57:04;;;;;;;7.95;4.25;;;;;;;;;;5040769;28;20120;-75
2023/05/20 12:59:30;;;;;;;8.60;4.38;;;;;;;;;;5029802;28;20048;-75
2023/05/20 13:01:56;;;;;;;8.98;4.72;;;;;;;;;;5043783;28;20412;-77
2023/05/20 13:04:23;;;;;;;8.82;4.30;;;;;;;;;;5038879;28;20120;-76
2023/05/20 13:06:49;;;;;;;8.30;4.30;;;;;;;;;;5036998;28;20117;-76
2023/05/20 13:09:16;;;;;;;7.15;4.85;;;;;;;;;;5029271;28;20049;-76
2023/05/20 13:11:42;;;;;;;9.70;4.50;;;;;;;;;;5048054;28;20119;-75
2023/05/20 13:14:08;;;;;;;8.95;3.90;;;;;;;;;;5051772;28;20052;-75
2023/05/20 13:16:34;;;;;;;11.85;5.30;;;;;;;;;;5044376;28;20045;-75
2023/05/20 13:19:00;;;;;;;10.07;4.25;;;;;;;;;;5046630;28;20053;-75
2023/05/20 13:21:26;;;;;;;9.07;4.50;;;;;;;;;;5032606;28;20052;-75
2023/05/20 13:23:52;;;;;;;8.80;4.60;;;;;;;;;;5045452;28;20053;-74
2023/05/20 13:26:18;;;;;;;8.13;4.60;;;;;;;;;;5020814;28;20095;-75
2023/05/20 13:28:44;;;;;;;7.28;4.55;;;;;;;;;;5042715;28;20120;-75
2023/05/20 13:31:10;;;;;;;15.05;4.55;;;;;;;;;;5043772;28;20123;-75
2023/05/20 13:33:36;;;;;;;8.40;4.70;;;;;;;;;;5035899;28;20037;-75
2023/05/20 13:36:02;;;;;;;10.18;4.13;;;;;;;;;;5035867;28;20037;-75
2023/05/20 13:38:28;;;;;;;7.72;3.67;;;;;;;;;;5020287;28;20053;-75
2023/05/20 13:40:58;;;;;;;6.15;4.20;;;;;;;;;;5049354;28;20037;-75
2023/05/20 13:43:25;;;;;;;7.25;4.22;;;;;;;;;;5052027;28;20048;-75
2023/05/20 13:45:51;;;;;;;9.63;4.00;;;;;;;;;;5039486;28;20049;-75
2023/05/20 13:48:17;;;;;;;7.72;4.00;;;;;;;;;;5051613;28;20077;-75
2023/05/20 13:50:43;;;;;;;5.95;3.80;;;;;;;;;;5055729;28;20067;-75
2023/05/20 13:53:12;;;;;;;8.90;4.63;;;;;;;;;;5040467;28;20483;-75
2023/05/20 13:55:38;;;;;;;6.45;4.10;;;;;;;;;;5047226;28;20152;-75
2023/05/20 13:58:07;;;;;;;8.20;4.28;;;;;;;;;;5056067;28;20414;-76
2023/05/20 14:00:33;;;;;;;9.05;4.13;;;;;;;;;;5037290;28;20492;-76
2023/05/20 14:02:59;;;;;;;7.05;3.97;;;;;;;;;;5051270;28;20037;-75
2023/05/20 14:05:26;;;;;;;9.20;4.57;;;;;;;;;;5025242;28;20107;-75
2023/05/20 14:07:52;;;;;;;7.80;4.22;;;;;;;;;;5038188;28;20098;-75
2023/05/20 14:10:18;;;;;;;8.32;4.45;;;;;;;;;;5049092;28;20041;-76
2023/05/20 14:12:46;;;;;;;7.57;4.75;;;;;;;;;;5049208;28;20558;-75
2023/05/20 14:15:12;;;;;;;7.53;3.88;;;;;;;;;;5055829;28;20049;-75
2023/05/20 14:17:39;;;;;;;8.57;4.35;;;;;;;;;;5037273;28;20167;-78
2023/05/20 14:20:05;;;;;;;6.93;4.10;;;;;;;;;;5037230;28;20041;-76
2023/05/20 14:22:31;;;;;;;8.13;3.95;;;;;;;;;;5050308;28;20069;-76
2023/05/20 14:24:57;;;;;;;5.75;3.72;;;;;;;;;;5051823;28;20061;-76
2023/05/20 14:27:23;;;;;;;7.53;4.18;;;;;;;;;;5053883;28;20528;-76
2023/05/20 14:29:49;;;;;;;5.95;4.43;;;;;;;;;;5038362;28;20541;-75
2023/05/20 14:32:16;;;;;;;8.73;4.50;;;;;;;;;;5038570;28;20037;-76
2023/05/20 14:34:42;;;;;;;8.70;4.35;;;;;;;;;;5033401;28;20044;-76
2023/05/20 14:37:08;;;;;;;9.48;4.32;;;;;;;;;;5047087;28;20463;-75